createdAt,value
2018-04-22T00:00:34.926Z,52.62
2018-04-22T00:03:01.683Z,52.87
2018-04-22T00:05:28.305Z,53.27
2018-04-22T00:07:55.111Z,53.41
2018-04-22T00:10:21.752Z,53.40
2018-04-22T00:12:48.496Z,53.62
2018-04-22T00:15:15.219Z,53.62
2018-04-22T00:17:42.037Z,53.66
2018-04-22T00:20:09.417Z,53.67
2018-04-22T00:22:36.153Z,53.93
2018-04-22T00:25:02.835Z,54.20
2018-04-22T00:27:29.536Z,54.22
2018-04-22T00:29:56.261Z,53.93
2018-04-22T00:32:23.812Z,54.39
2018-04-22T00:34:51.190Z,54.33
2018-04-22T00:37:17.821Z,54.29
2018-04-22T00:39:45.223Z,54.12
2018-04-22T00:42:12.041Z,54.19
2018-04-22T00:44:38.796Z,54.14
2018-04-22T00:47:05.438Z,54.17
2018-04-22T00:49:32.259Z,54.39
2018-04-22T00:51:58.901Z,54.62
2018-04-22T00:54:25.529Z,54.54
2018-04-22T00:56:52.398Z,54.47
2018-04-22T00:59:19.057Z,54.01
2018-04-22T01:01:45.847Z,54.45
2018-04-22T01:04:13.281Z,54.22
2018-04-22T01:06:40.712Z,54.50
2018-04-22T01:09:07.318Z,54.63
2018-04-22T01:11:33.958Z,54.67
2018-04-22T01:14:00.756Z,54.67
2018-04-22T01:16:27.498Z,54.72
2018-04-22T01:18:54.154Z,54.80
2018-04-22T01:21:21.525Z,54.96
2018-04-22T01:23:48.172Z,55.27
2018-04-22T01:26:14.795Z,55.33
2018-04-22T01:28:41.459Z,55.19
2018-04-22T01:31:08.162Z,55.01
2018-04-22T01:33:35.519Z,54.94
2018-04-22T01:36:02.906Z,55.36
2018-04-22T01:38:29.750Z,55.67
2018-04-22T01:40:56.427Z,55.23
2018-04-22T01:43:23.073Z,55.46
2018-04-22T01:45:49.711Z,55.98
2018-04-22T01:48:16.388Z,56.17
2018-04-22T01:50:43.047Z,56.31
2018-04-22T01:53:09.747Z,55.85
2018-04-22T01:55:37.300Z,56.15
2018-04-22T01:58:03.957Z,55.99
2018-04-22T02:00:31.336Z,55.65
2018-04-22T02:02:57.979Z,55.49
2018-04-22T02:05:24.791Z,55.37
2018-04-22T02:07:52.190Z,55.34
2018-04-22T02:10:18.789Z,55.54
2018-04-22T02:12:46.220Z,56.04
2018-04-22T02:15:13.083Z,55.66
2018-04-22T02:17:40.631Z,56.13
2018-04-22T02:20:08.045Z,55.89
2018-04-22T02:22:34.772Z,55.74
2018-04-22T02:25:01.390Z,56.21
2018-04-22T02:27:28.823Z,56.11
2018-04-22T02:29:55.659Z,56.16
2018-04-22T02:32:22.302Z,56.37
2018-04-22T02:34:49.050Z,56.67
2018-04-22T02:37:15.682Z,57.03
2018-04-22T02:39:42.348Z,57.14
2018-04-22T02:42:09.801Z,57.27
2018-04-22T02:44:37.181Z,57.34
2018-04-22T02:47:03.918Z,57.49
2018-04-22T02:49:30.569Z,57.54
2018-04-22T02:51:57.218Z,57.43
2018-04-22T02:54:24.008Z,57.35
2018-04-22T02:56:50.640Z,57.08
2018-04-22T02:59:18.068Z,57.22
2018-04-22T03:01:44.794Z,57.39
2018-04-22T03:04:11.475Z,57.58
2018-04-22T03:06:38.168Z,57.73
2018-04-22T03:09:05.801Z,58.21
2018-04-22T03:11:33.169Z,58.35
2018-04-22T03:13:59.915Z,58.31
2018-04-22T03:16:26.573Z,58.47
2018-04-22T03:18:53.384Z,58.55
2018-04-22T03:21:20.779Z,58.71
2018-04-22T03:23:47.433Z,59.16
2018-04-22T03:26:14.103Z,58.72
2018-04-22T03:28:41.464Z,58.91
2018-04-22T03:31:08.216Z,58.89
2018-04-22T03:33:34.852Z,59.01
2018-04-22T03:36:02.254Z,58.99
2018-04-22T03:38:29.678Z,59.21
2018-04-22T03:40:56.331Z,59.31
2018-04-22T03:43:23.064Z,59.42
2018-04-22T03:45:49.699Z,59.47
2018-04-22T03:48:16.538Z,59.56
2018-04-22T03:50:50.137Z,59.70
2018-04-22T03:53:16.897Z,59.97
2018-04-22T03:55:43.532Z,60.07
2018-04-22T03:58:10.281Z,60.29
2018-04-22T04:00:36.914Z,60.23
2018-04-22T04:03:03.562Z,60.38
2018-04-22T04:05:30.341Z,60.41
2018-04-22T04:07:56.946Z,60.17
2018-04-22T04:10:23.899Z,60.58
2018-04-22T04:12:50.537Z,60.40
2018-04-22T04:15:17.209Z,60.35
2018-04-22T04:17:44.585Z,60.80
2018-04-22T04:20:30.501Z,61.06
2018-04-22T04:22:57.305Z,60.98
2018-04-22T04:26:02.583Z,61.27
2018-04-22T04:28:29.197Z,61.51
2018-04-22T04:30:56.588Z,61.76
2018-04-22T04:33:23.229Z,62.00
2018-04-22T04:35:49.962Z,61.87
2018-04-22T04:38:16.589Z,61.84
2018-04-22T04:40:43.207Z,61.88
2018-04-22T04:43:10.704Z,61.57
2018-04-22T04:45:37.327Z,61.81
2018-04-22T04:48:04.051Z,62.12
2018-04-22T04:50:31.561Z,62.12
2018-04-22T04:52:58.372Z,62.18
2018-04-22T04:55:25.006Z,61.90
2018-04-22T04:57:51.778Z,62.07
2018-04-22T05:00:18.425Z,62.02
2018-04-22T05:02:45.250Z,61.64
2018-04-22T05:05:11.951Z,61.81
2018-04-22T05:07:39.677Z,61.82
2018-04-22T05:10:06.523Z,61.91
2018-04-22T05:12:33.133Z,61.89
2018-04-22T05:14:59.929Z,61.52
2018-04-22T05:17:27.538Z,61.66
2018-04-22T05:19:54.171Z,61.54
2018-04-22T05:22:21.455Z,61.17
2018-04-22T05:24:49.444Z,60.29
2018-04-22T05:27:17.756Z,60.27
2018-04-22T05:29:46.912Z,59.60
2018-04-22T05:32:14.323Z,59.19
2018-04-22T05:34:41.218Z,59.36
2018-04-22T05:37:07.838Z,59.44
2018-04-22T05:39:34.548Z,59.22
2018-04-22T05:42:01.174Z,59.37
2018-04-22T05:44:27.847Z,60.22
2018-04-22T05:46:55.394Z,60.86
2018-04-22T05:49:22.140Z,60.51
2018-04-22T05:51:48.940Z,59.54
2018-04-22T05:54:15.661Z,58.99
2018-04-22T05:56:43.046Z,58.56
2018-04-22T05:59:09.809Z,57.72
2018-04-22T06:01:36.448Z,58.33
2018-04-22T06:04:03.048Z,57.81
2018-04-22T06:06:31.966Z,57.55
2018-04-22T06:08:58.605Z,57.34
2018-04-22T06:11:25.388Z,56.99
2018-04-22T06:13:51.984Z,56.94
2018-04-22T06:16:19.518Z,56.80
2018-04-22T06:18:46.868Z,56.89
2018-04-22T06:21:14.280Z,56.72
2018-04-22T06:23:40.888Z,56.67
2018-04-22T06:26:07.608Z,56.58
2018-04-22T06:28:34.945Z,56.07
2018-04-22T06:31:02.336Z,56.52
2018-04-22T06:33:29.092Z,55.55
2018-04-22T06:35:55.765Z,55.63
2018-04-22T06:38:22.531Z,55.88
2018-04-22T06:40:49.909Z,55.68
2018-04-22T06:43:16.607Z,55.81
2018-04-22T06:45:43.204Z,55.61
2018-04-22T06:48:09.839Z,55.19
2018-04-22T06:50:36.488Z,55.17
2018-04-22T06:53:03.129Z,55.16
2018-04-22T06:55:29.771Z,55.01
2018-04-22T06:57:56.528Z,55.05
2018-04-22T07:00:23.170Z,55.14
2018-04-22T07:02:49.889Z,54.85
2018-04-22T07:05:16.577Z,54.81
2018-04-22T07:07:44.063Z,54.77
2018-04-22T07:10:10.752Z,54.71
2018-04-22T07:12:37.432Z,54.70
2018-04-22T07:15:04.096Z,54.54
2018-04-22T07:17:32.334Z,54.40
2018-04-22T07:19:59.067Z,53.89
2018-04-22T07:22:26.685Z,53.95
2018-04-22T07:24:53.295Z,53.80
2018-04-22T07:27:19.968Z,53.50
2018-04-22T07:29:46.820Z,53.48
2018-04-22T07:32:13.491Z,53.04
2018-04-22T07:34:41.720Z,52.96
2018-04-22T07:37:09.170Z,52.92
2018-04-22T07:39:35.909Z,52.75
2018-04-22T07:42:02.561Z,52.71
2018-04-22T07:44:29.454Z,53.13
2018-04-22T07:46:56.838Z,53.26
2018-04-22T07:49:23.607Z,53.28
2018-04-22T07:51:50.493Z,52.47
2018-04-22T07:54:17.865Z,52.43
2018-04-22T07:56:44.538Z,52.47
2018-04-22T07:59:11.331Z,52.25
2018-04-22T08:01:38.843Z,51.93
2018-04-22T08:04:05.515Z,51.74
2018-04-22T08:06:33.010Z,51.38
2018-04-22T08:08:59.730Z,51.54
2018-04-22T08:11:27.352Z,51.47
2018-04-22T08:13:53.829Z,50.98
2018-04-22T08:16:20.505Z,51.14
2018-04-22T08:18:47.862Z,51.25
2018-04-22T08:21:14.520Z,51.11
2018-04-22T08:23:41.346Z,51.19
2018-04-22T08:26:08.314Z,51.24
2018-04-22T08:28:35.035Z,50.81
2018-04-22T08:31:01.713Z,50.49
2018-04-22T08:33:29.168Z,50.25
2018-04-22T08:35:56.570Z,50.40
2018-04-22T08:38:23.245Z,50.05
2018-04-22T08:40:51.144Z,50.05
2018-04-22T08:43:18.555Z,49.85
2018-04-22T08:45:45.292Z,49.59
2018-04-22T08:48:11.964Z,48.88
2018-04-22T08:50:38.841Z,48.29
2018-04-22T08:53:05.600Z,48.56
2018-04-22T08:55:32.344Z,48.55
2018-04-22T08:57:59.011Z,48.70
2018-04-22T09:00:26.547Z,48.62
2018-04-22T09:02:53.242Z,48.39
2018-04-22T09:05:20.675Z,48.33
2018-04-22T09:07:48.109Z,48.59
2018-04-22T09:10:14.749Z,48.87
2018-04-22T09:12:41.443Z,48.85
2018-04-22T09:15:08.824Z,48.49
2018-04-22T09:17:35.538Z,48.86
2018-04-22T09:20:03.059Z,48.79
2018-04-22T09:22:29.704Z,48.61
2018-04-22T09:24:56.571Z,49.03
2018-04-22T09:27:24.061Z,48.77
2018-04-22T09:29:50.968Z,48.87
2018-04-22T09:32:18.432Z,48.42
2018-04-22T09:34:45.824Z,48.71
2018-04-22T09:37:12.472Z,48.17
2018-04-22T09:39:39.114Z,48.37
2018-04-22T09:42:05.790Z,47.60
2018-04-22T09:44:32.436Z,47.34
2018-04-22T09:46:59.852Z,47.00
2018-04-22T09:49:26.601Z,46.84
2018-04-22T09:51:53.256Z,46.55
2018-04-22T09:54:20.095Z,46.07
2018-04-22T09:56:47.473Z,46.45
2018-04-22T09:59:14.124Z,46.44
2018-04-22T10:01:40.769Z,46.08
2018-04-22T10:04:10.521Z,46.47
2018-04-22T10:06:37.209Z,46.06
2018-04-22T10:09:05.686Z,45.66
2018-04-22T10:11:33.112Z,46.02
2018-04-22T10:14:00.592Z,46.36
2018-04-22T10:16:27.995Z,45.91
2018-04-22T10:18:54.652Z,45.68
2018-04-22T10:21:21.315Z,45.47
2018-04-22T10:23:47.984Z,45.78
2018-04-22T10:26:14.749Z,46.10
2018-04-22T10:28:41.501Z,46.18
2018-04-22T10:31:08.282Z,45.51
2018-04-22T10:33:34.959Z,45.63
2018-04-22T10:36:01.626Z,45.06
2018-04-22T10:38:28.329Z,44.65
2018-04-22T10:40:55.776Z,44.96
2018-04-22T10:43:23.170Z,44.54
2018-04-22T10:45:49.878Z,44.65
2018-04-22T10:48:17.391Z,44.11
2018-04-22T10:50:44.071Z,43.96
2018-04-22T10:53:11.459Z,43.60
2018-04-22T10:55:38.357Z,43.86
2018-04-22T10:58:05.150Z,43.86
2018-04-22T11:00:31.792Z,43.31
2018-04-22T11:02:58.448Z,42.64
2018-04-22T11:05:25.097Z,42.98
2018-04-22T11:07:51.768Z,42.26
2018-04-22T11:10:19.188Z,42.14
2018-04-22T11:12:45.888Z,42.02
2018-04-22T11:15:12.554Z,41.79
2018-04-22T11:17:39.412Z,41.56
2018-04-22T11:20:06.033Z,41.79
2018-04-22T11:22:32.739Z,41.08
2018-04-22T11:24:59.383Z,41.02
2018-04-22T11:27:26.076Z,41.44
2018-04-22T11:29:52.760Z,40.81
2018-04-22T11:32:20.454Z,41.19
2018-04-22T11:34:47.202Z,41.09
2018-04-22T11:37:13.878Z,41.18
2018-04-22T11:39:41.252Z,41.13
2018-04-22T11:42:08.645Z,40.95
2018-04-22T11:44:35.334Z,40.73
2018-04-22T11:47:03.006Z,39.45
2018-04-22T11:49:30.634Z,40.07
2018-04-22T11:51:57.503Z,40.30
2018-04-22T11:54:25.089Z,40.04
2018-04-22T11:56:51.724Z,39.87
2018-04-22T11:59:18.386Z,40.15
2018-04-22T12:01:45.043Z,40.22
2018-04-22T12:04:11.886Z,40.86
2018-04-22T12:06:38.781Z,39.89
2018-04-22T12:09:05.526Z,39.71
2018-04-22T12:11:32.155Z,39.95
2018-04-22T12:13:59.568Z,40.28
2018-04-22T12:16:26.982Z,40.48
2018-04-22T12:18:53.660Z,41.10
2018-04-22T12:21:20.322Z,40.96
2018-04-22T12:23:47.061Z,40.89
2018-04-22T12:26:13.857Z,41.12
2018-04-22T12:28:40.532Z,41.72
2018-04-22T12:31:07.241Z,42.34
2018-04-22T12:33:33.909Z,42.49
2018-04-22T12:36:00.590Z,42.57
2018-04-22T12:38:27.964Z,42.97
2018-04-22T12:40:55.027Z,43.01
2018-04-22T12:43:21.698Z,43.78
2018-04-22T12:45:48.371Z,44.24
2018-04-22T12:48:15.123Z,44.98
2018-04-22T12:50:41.951Z,46.25
2018-04-22T12:53:08.634Z,47.10
2018-04-22T12:55:35.416Z,47.79
2018-04-22T12:58:02.077Z,48.61
2018-04-22T13:00:28.934Z,48.05
2018-04-22T13:02:55.588Z,47.89
2018-04-22T13:05:22.281Z,46.69
2018-04-22T13:07:50.828Z,46.60
2018-04-22T13:10:17.500Z,46.31
2018-04-22T13:12:44.889Z,45.72
2018-04-22T13:15:11.592Z,44.87
2018-04-22T13:17:38.297Z,44.25
2018-04-22T13:20:04.961Z,44.13
2018-04-22T13:22:31.774Z,44.07
2018-04-22T13:24:58.496Z,43.73
2018-04-22T13:27:25.206Z,43.34
2018-04-22T13:29:51.985Z,43.60
2018-04-22T13:32:18.635Z,43.68
2018-04-22T13:34:45.368Z,42.93
2018-04-22T13:37:12.085Z,42.03
2018-04-22T13:39:38.768Z,40.88
2018-04-22T13:42:05.410Z,39.17
2018-04-22T13:44:32.163Z,37.73
2018-04-22T13:47:00.581Z,37.77
2018-04-22T13:49:27.228Z,37.65
2018-04-22T13:51:53.883Z,37.45
2018-04-22T13:54:20.600Z,36.60
2018-04-22T13:56:47.786Z,36.03
2018-04-22T13:59:14.425Z,35.99
2018-04-22T14:01:41.094Z,35.91
2018-04-22T14:04:08.430Z,35.56
2018-04-22T14:06:35.222Z,34.79
2018-04-22T14:09:01.861Z,33.93
2018-04-22T14:11:28.666Z,33.73
2018-04-22T14:13:55.310Z,33.11
2018-04-22T14:16:23.648Z,32.48
2018-04-22T14:18:50.300Z,33.20
2018-04-22T14:21:17.023Z,33.27
2018-04-22T14:23:43.779Z,33.36
2018-04-22T14:26:10.406Z,33.57
2018-04-22T14:28:37.139Z,33.70
2018-04-22T14:31:03.834Z,33.44
2018-04-22T14:33:32.055Z,33.54
2018-04-22T14:35:58.690Z,32.60
2018-04-22T14:38:25.308Z,32.86
2018-04-22T14:40:52.236Z,31.91
2018-04-22T14:43:19.665Z,31.60
2018-04-22T14:46:15.389Z,31.95
2018-04-22T14:49:00.282Z,33.14
2018-04-22T14:51:26.965Z,34.45
2018-04-22T14:53:53.619Z,35.20
2018-04-22T14:56:20.320Z,35.62
2018-04-22T14:58:47.157Z,35.71
2018-04-22T15:01:14.608Z,35.80
2018-04-22T15:03:41.996Z,35.49
2018-04-22T15:06:08.693Z,35.63
2018-04-22T15:08:36.148Z,36.33
2018-04-22T15:11:02.797Z,37.82
2018-04-22T15:13:29.636Z,39.60
2018-04-22T15:15:57.039Z,40.00
2018-04-22T15:18:23.763Z,39.11
2018-04-22T15:20:50.400Z,40.06
2018-04-22T15:23:17.135Z,40.20
2018-04-22T15:25:43.908Z,40.29
2018-04-22T15:28:10.614Z,40.47
2018-04-22T15:30:38.383Z,40.48
2018-04-22T15:33:05.092Z,41.08
2018-04-22T15:35:32.665Z,41.54
2018-04-22T15:38:00.267Z,42.39
2018-04-22T15:40:27.027Z,43.08
2018-04-22T15:42:53.751Z,43.01
2018-04-22T15:45:20.479Z,43.51
2018-04-22T15:47:47.112Z,43.99
2018-04-22T15:50:13.774Z,44.62
2018-04-22T15:52:40.423Z,45.54
2018-04-22T15:55:07.312Z,46.50
2018-04-22T15:57:34.882Z,47.19
2018-04-22T16:00:01.562Z,46.84
2018-04-22T16:02:28.260Z,46.26
2018-04-22T16:04:54.934Z,46.14
2018-04-22T16:07:21.651Z,46.17
2018-04-22T16:09:50.695Z,46.42
2018-04-22T16:12:17.389Z,46.66
2018-04-22T16:14:44.096Z,46.35
2018-04-22T16:17:10.764Z,46.49
2018-04-22T16:19:37.450Z,47.34
2018-04-22T16:22:04.190Z,47.88
2018-04-22T16:24:30.944Z,47.91
2018-04-22T16:26:57.624Z,48.16
2018-04-22T16:29:24.321Z,48.98
2018-04-22T16:31:51.203Z,49.20
2018-04-22T16:34:20.985Z,49.86
2018-04-22T16:36:48.644Z,49.06
2018-04-22T16:39:15.334Z,48.87
2018-04-22T16:41:42.793Z,48.88
2018-04-22T16:44:09.562Z,48.79
2018-04-22T16:46:36.244Z,48.53
2018-04-22T16:49:03.761Z,48.76
2018-04-22T16:51:30.432Z,48.92
2018-04-22T16:53:57.136Z,49.23
2018-04-22T16:56:24.552Z,49.47
2018-04-22T16:58:51.223Z,48.99
2018-04-22T17:01:17.996Z,48.44
2018-04-22T17:03:44.659Z,48.97
2018-04-22T17:06:12.177Z,49.74
2018-04-22T17:08:39.326Z,49.72
2018-04-22T17:11:05.947Z,50.05
2018-04-22T17:13:32.688Z,50.49
2018-04-22T17:15:59.325Z,50.04
2018-04-22T17:18:26.028Z,50.10
2018-04-22T17:20:53.596Z,49.33
2018-04-22T17:23:21.046Z,48.93
2018-04-22T17:25:47.973Z,48.96
2018-04-22T17:28:14.670Z,49.13
2018-04-22T17:30:41.406Z,49.40
2018-04-22T17:33:08.998Z,49.48
2018-04-22T17:35:35.782Z,49.87
2018-04-22T17:38:02.428Z,50.18
2018-04-22T17:40:29.126Z,50.11
2018-04-22T17:42:56.871Z,50.36
2018-04-22T17:45:23.998Z,50.71
2018-04-22T17:47:50.723Z,51.04
2018-04-22T17:50:19.064Z,51.54
2018-04-22T17:52:47.090Z,51.76
2018-04-22T17:55:13.878Z,51.71
2018-04-22T17:57:40.567Z,51.68
2018-04-22T18:00:07.705Z,49.51
2018-04-22T18:02:35.149Z,49.35
2018-04-22T18:05:02.741Z,48.48
2018-04-22T18:07:32.333Z,46.76
2018-04-22T18:09:59.033Z,45.21
2018-04-22T18:12:26.828Z,44.01
2018-04-22T18:14:53.532Z,43.17
2018-04-22T18:17:21.059Z,44.44
2018-04-22T18:19:47.762Z,46.71
2018-04-22T18:22:14.684Z,47.71
2018-04-22T18:24:41.527Z,47.62
2018-04-22T18:27:08.994Z,47.33
2018-04-22T18:29:37.914Z,47.43
2018-04-22T18:32:04.657Z,47.18
2018-04-22T18:34:31.381Z,47.55
2018-04-22T18:36:58.286Z,48.02
2018-04-22T18:39:25.052Z,48.36
2018-04-22T18:41:52.467Z,48.70
2018-04-22T18:44:19.202Z,48.89
2018-04-22T18:46:45.984Z,48.68
2018-04-22T18:49:13.468Z,48.65
2018-04-22T18:51:40.147Z,48.87
2018-04-22T18:54:06.801Z,49.27
2018-04-22T18:56:33.520Z,49.40
2018-04-22T18:59:00.201Z,49.79
2018-04-22T19:01:27.601Z,50.05
2018-04-22T19:03:54.306Z,50.21
2018-04-22T19:06:21.895Z,50.32
2018-04-22T19:08:48.649Z,50.84
2018-04-22T19:11:15.365Z,50.88
2018-04-22T19:13:42.761Z,51.33
2018-04-22T19:16:09.464Z,52.31
2018-04-22T19:18:36.173Z,52.59
2018-04-22T19:21:02.974Z,52.85
2018-04-22T19:23:29.655Z,53.14
2018-04-22T19:25:57.107Z,53.41
2018-04-22T19:28:23.817Z,53.62
2018-04-22T19:30:50.669Z,54.01
2018-04-22T19:33:17.694Z,54.23
2018-04-22T19:35:44.368Z,54.60
2018-04-22T19:38:11.085Z,54.74
2018-04-22T19:40:37.754Z,55.02
2018-04-22T19:43:04.507Z,55.02
2018-04-22T19:45:31.938Z,55.50
2018-04-22T19:47:58.709Z,55.58
2018-04-22T19:50:26.272Z,56.16
2018-04-22T19:52:53.790Z,56.25
2018-04-22T19:55:20.558Z,56.62
2018-04-22T19:57:47.309Z,57.20
2018-04-22T20:00:14.744Z,57.89
2018-04-22T20:02:41.428Z,58.77
2018-04-22T20:05:08.239Z,59.02
2018-04-22T20:07:35.651Z,59.33
2018-04-22T20:10:02.387Z,59.59
2018-04-22T20:12:29.129Z,59.74
2018-04-22T20:14:55.789Z,59.94
2018-04-22T20:17:22.463Z,59.86
2018-04-22T20:19:49.860Z,60.05
2018-04-22T20:22:16.533Z,59.78
2018-04-22T20:24:43.148Z,60.01
2018-04-22T20:27:09.822Z,60.27
2018-04-22T20:29:36.463Z,60.73
2018-04-22T20:32:03.100Z,60.76
2018-04-22T20:34:29.933Z,61.12
2018-04-22T20:36:56.607Z,61.40
2018-04-22T20:39:23.281Z,61.76
2018-04-22T20:41:50.212Z,62.17
2018-04-22T20:44:16.925Z,62.35
2018-04-22T20:46:44.418Z,62.55
2018-04-22T20:49:11.220Z,62.73
2018-04-22T20:51:38.644Z,62.99
2018-04-22T20:54:05.400Z,63.13
2018-04-22T20:56:32.092Z,63.35
2018-04-22T20:58:58.830Z,63.57
2018-04-22T21:01:25.521Z,63.58
2018-04-22T21:03:52.200Z,63.57
2018-04-22T21:06:19.029Z,63.88
2018-04-22T21:08:47.045Z,64.09
2018-04-22T21:11:14.457Z,64.20
2018-04-22T21:13:41.386Z,64.54
2018-04-22T21:16:08.184Z,64.51
2018-04-22T21:18:34.920Z,64.49
2018-04-22T21:21:01.635Z,64.43
2018-04-22T21:23:28.341Z,64.45
2018-04-22T21:25:55.010Z,64.61
2018-04-22T21:28:22.460Z,64.80
2018-04-22T21:30:49.292Z,65.11
2018-04-22T21:33:16.841Z,65.44
2018-04-22T21:35:43.492Z,65.45
2018-04-22T21:38:10.908Z,65.66
2018-04-22T21:40:37.657Z,65.90
2018-04-22T21:43:04.426Z,66.01
2018-04-22T21:45:31.216Z,66.11
2018-04-22T21:47:58.026Z,66.57
2018-04-22T21:50:25.392Z,66.66
2018-04-22T21:52:52.033Z,67.05
2018-04-22T21:55:18.726Z,67.65
2018-04-22T21:57:45.388Z,67.95
2018-04-22T22:00:12.893Z,67.95
2018-04-22T22:02:40.522Z,67.87
2018-04-22T22:05:07.948Z,68.17
2018-04-22T22:07:34.612Z,68.51
2018-04-22T22:10:02.007Z,68.34
2018-04-22T22:12:28.856Z,68.53
2018-04-22T22:14:55.488Z,68.79
2018-04-22T22:17:22.120Z,68.58
2018-04-22T22:19:48.764Z,68.12
2018-04-22T22:22:15.409Z,67.79
2018-04-22T22:24:42.105Z,67.69
2018-04-22T22:27:09.497Z,67.77
2018-04-22T22:29:36.133Z,68.02
2018-04-22T22:32:02.786Z,67.83
2018-04-22T22:34:29.453Z,68.19
2018-04-22T22:36:56.318Z,68.51
2018-04-22T22:39:23.785Z,69.00
2018-04-22T22:41:50.467Z,69.10
2018-04-22T22:44:17.416Z,68.86
2018-04-22T22:46:44.065Z,68.54
2018-04-22T22:49:10.913Z,68.49
2018-04-22T22:51:38.385Z,68.70
2018-04-22T22:54:05.132Z,69.19
2018-04-22T22:56:32.711Z,69.08
2018-04-22T22:59:00.101Z,69.09
2018-04-22T23:01:26.734Z,69.07
2018-04-22T23:03:53.417Z,68.77
2018-04-22T23:06:20.091Z,68.56
2018-04-22T23:08:46.708Z,68.62
2018-04-22T23:11:14.116Z,68.57
2018-04-22T23:13:40.806Z,68.43
2018-04-22T23:16:08.376Z,68.41
2018-04-22T23:18:35.946Z,68.36
2018-04-22T23:21:03.397Z,68.18
2018-04-22T23:23:30.784Z,68.38
2018-04-22T23:25:57.524Z,68.33
2018-04-22T23:28:24.177Z,68.87
2018-04-22T23:30:50.862Z,68.66
2018-04-22T23:33:18.505Z,68.59
2018-04-22T23:35:45.128Z,68.15
2018-04-22T23:38:11.804Z,68.32
2018-04-22T23:40:39.173Z,67.29
2018-04-22T23:43:06.008Z,67.27
2018-04-22T23:45:32.685Z,67.53
2018-04-22T23:47:59.543Z,71.18
2018-04-22T23:50:26.220Z,72.39
2018-04-22T23:52:53.610Z,72.86
2018-04-22T23:55:20.261Z,74.42
2018-04-22T23:57:46.893Z,74.85
